Laguna Vista, Texas
Current Conditions -  °F | °C
As of 4:53 AM on Friday 28 Nov 2014 (Local Time) from KPIL Reporting Station
Haze Haze  
Wind Chill: 51°   Ceiling: Unl
Heat Index: 51°   Visibility: 4mi
Dew Point: 49°   Wind: 3mph
Humidity: 92%   Direction: 160°SSE
Pressure: 30.31"   Gusts: NA
Location:  26.0776°N, 97.3389°W
Report Text: KPIL 281053Z AUTO 16003KT 4SM BR CLR 11/09 A3031 RMK AO2 SLP262 T01060094
Loading
Personal Weather Stations






























Interactive Weather Map New forecast layout! Learn more

10-Day Weather Forecast

Advertisements
Track Severe Weather on mobile